Time;durP1;ratioP1;P1;durP2;ratioP2;P2;SDS_P1;SDS_P2;PMS_P1;PMS_P2;Temp;Humidity;BMP_temperature;BMP_pressure;BME280_temperature;BME280_humidity;BME280_pressure;Samples;Min_cycle;Max_cycle;Signal;HPM_P1;HPM_P2
2023/12/20 00:00:20;;;;;;;10.63;1.17;;;6.30;99.90;;;;;;5001688;28;20034;-74
2023/12/20 00:02:46;;;;;;;10.98;1.00;;;6.30;99.90;;;;;;4989088;28;20084;-74
2023/12/20 00:05:13;;;;;;;17.77;1.40;;;6.30;99.90;;;;;;4996748;28;20033;-76
2023/12/20 00:07:39;;;;;;;8.20;1.20;;;6.30;99.90;;;;;;5003437;28;20038;-75
2023/12/20 00:10:05;;;;;;;11.18;2.03;;;6.20;99.90;;;;;;4989530;28;20709;-75
2023/12/20 00:12:30;;;;;;;11.98;2.00;;;6.20;99.90;;;;;;5000463;28;20498;-75
2023/12/20 00:14:56;;;;;;;9.07;1.40;;;6.30;99.90;;;;;;4988320;28;20445;-75
2023/12/20 00:17:21;;;;;;;9.07;0.85;;;6.20;99.90;;;;;;4986384;28;20038;-75
2023/12/20 00:19:47;;;;;;;10.00;1.08;;;6.20;99.90;;;;;;4988503;28;20058;-75
2023/12/20 00:22:13;;;;;;;7.47;0.80;;;6.20;99.90;;;;;;4989197;28;20038;-75
2023/12/20 00:24:38;;;;;;;13.77;1.65;;;6.20;99.90;;;;;;4991249;28;20030;-75
2023/12/20 00:27:04;;;;;;;7.57;0.95;;;6.20;99.90;;;;;;4985699;28;20690;-74
2023/12/20 00:29:29;;;;;;;3.05;0.80;;;6.20;99.90;;;;;;4990805;28;20034;-75
2023/12/20 00:31:55;;;;;;;8.77;1.10;;;6.20;99.90;;;;;;4977844;28;20034;-76
2023/12/20 00:34:21;;;;;;;9.57;1.20;;;6.20;99.90;;;;;;4987599;28;20548;-76
2023/12/20 00:36:47;;;;;;;7.70;1.85;;;6.20;99.90;;;;;;4994351;28;20034;-75
2023/12/20 00:39:12;;;;;;;8.10;1.60;;;6.20;99.90;;;;;;4989168;28;20432;-75
2023/12/20 00:41:38;;;;;;;12.90;1.67;;;6.20;99.90;;;;;;4998526;28;20125;-76
2023/12/20 00:44:04;;;;;;;9.40;1.20;;;6.20;99.90;;;;;;4989327;28;20176;-75
2023/12/20 00:46:30;;;;;;;9.25;1.33;;;6.20;99.90;;;;;;4988403;28;20033;-74
2023/12/20 00:48:55;;;;;;;14.18;2.10;;;6.20;99.90;;;;;;4987652;28;20046;-75
2023/12/20 00:51:22;;;;;;;5.85;1.20;;;6.30;99.90;;;;;;4982437;28;20042;-75
2023/12/20 00:53:50;;;;;;;8.65;1.45;;;6.20;99.90;;;;;;4983590;28;20050;-74
2023/12/20 00:56:15;;;;;;;12.68;1.83;;;6.20;99.90;;;;;;4987907;28;20073;-73
2023/12/20 00:58:41;;;;;;;14.02;2.15;;;6.20;99.90;;;;;;4987959;28;20068;-74
2023/12/20 01:01:06;;;;;;;5.00;0.85;;;6.20;99.90;;;;;;4985413;28;20469;-73
2023/12/20 01:03:32;;;;;;;7.45;1.05;;;6.30;99.90;;;;;;4985415;28;20902;-74
2023/12/20 01:05:57;;;;;;;13.13;0.98;;;6.30;99.90;;;;;;4985937;28;20034;-74
2023/12/20 01:08:23;;;;;;;8.32;1.77;;;6.30;99.90;;;;;;4986561;28;20041;-74
2023/12/20 01:10:49;;;;;;;16.05;1.55;;;6.30;99.90;;;;;;4986669;28;20077;-75
2023/12/20 01:13:14;;;;;;;11.13;1.70;;;6.30;99.90;;;;;;4985546;28;20050;-74
2023/12/20 01:15:40;;;;;;;10.13;1.25;;;6.30;99.90;;;;;;4985766;28;20041;-74
2023/12/20 01:18:05;;;;;;;8.70;1.42;;;6.40;99.90;;;;;;4988700;28;20034;-75
2023/12/20 01:20:31;;;;;;;16.52;1.25;;;6.40;99.90;;;;;;4985285;28;20034;-74
2023/12/20 01:22:57;;;;;;;19.05;1.42;;;6.40;99.90;;;;;;4994819;28;20040;-73
2023/12/20 01:25:22;;;;;;;19.05;2.85;;;6.40;99.90;;;;;;4989289;28;20040;-74
2023/12/20 01:27:48;;;;;;;20.52;2.97;;;6.40;99.90;;;;;;4984971;28;20986;-74
2023/12/20 01:30:14;;;;;;;14.07;1.20;;;6.40;99.90;;;;;;4994588;28;20093;-76
2023/12/20 01:32:40;;;;;;;19.70;3.90;;;6.40;99.90;;;;;;4988237;28;20038;-75
2023/12/20 01:35:06;;;;;;;9.23;2.25;;;6.40;99.90;;;;;;5002309;28;20049;-74
2023/12/20 01:37:31;;;;;;;16.65;2.42;;;6.40;99.90;;;;;;4984084;28;20031;-75
2023/12/20 01:39:58;;;;;;;10.68;1.10;;;6.40;99.90;;;;;;4994061;28;20037;-73
2023/12/20 01:42:24;;;;;;;12.57;1.65;;;6.50;99.90;;;;;;4995430;28;20039;-76
2023/12/20 01:44:49;;;;;;;14.95;2.80;;;6.50;99.90;;;;;;4995893;28;20413;-74
2023/12/20 01:47:15;;;;;;;7.65;1.55;;;6.50;99.90;;;;;;4987395;28;20038;-75
2023/12/20 01:49:40;;;;;;;23.23;2.75;;;6.50;99.90;;;;;;4993533;28;20343;-75
2023/12/20 01:52:07;;;;;;;11.30;1.20;;;6.50;99.90;;;;;;5005179;28;20044;-77
2023/12/20 01:54:34;;;;;;;10.80;1.75;;;6.50;99.90;;;;;;4997521;28;20702;-76
2023/12/20 01:57:00;;;;;;;8.93;1.67;;;6.50;99.90;;;;;;4984410;28;20722;-76
2023/12/20 01:59:26;;;;;;;8.35;1.50;;;6.50;99.90;;;;;;4980596;28;20034;-76
2023/12/20 02:01:52;;;;;;;19.80;2.30;;;6.40;99.90;;;;;;4986542;28;20060;-76
2023/12/20 02:04:18;;;;;;;16.08;2.58;;;6.40;99.90;;;;;;4984829;28;20370;-74
2023/12/20 02:06:45;;;;;;;12.43;1.20;;;6.40;99.90;;;;;;4985764;28;20046;-74
2023/12/20 02:09:11;;;;;;;9.20;1.77;;;6.50;99.90;;;;;;4987807;28;20076;-75
2023/12/20 02:11:38;;;;;;;11.85;1.60;;;6.50;99.90;;;;;;4984620;28;20070;-75
2023/12/20 02:14:03;;;;;;;14.27;1.42;;;6.60;99.90;;;;;;5005538;28;20048;-75
2023/12/20 02:16:29;;;;;;;14.88;1.83;;;6.60;99.90;;;;;;4984770;28;20026;-75
2023/12/20 02:18:55;;;;;;;17.80;2.33;;;6.60;99.90;;;;;;4988395;28;20029;-75
2023/12/20 02:21:25;;;;;;;18.13;1.88;;;6.60;99.90;;;;;;4995673;28;20068;-74
2023/12/20 02:23:51;;;;;;;16.60;2.25;;;6.70;99.90;;;;;;4991676;28;20037;-75
2023/12/20 02:26:16;;;;;;;16.45;3.15;;;6.70;99.90;;;;;;4991326;28;20034;-75
2023/12/20 02:28:42;;;;;;;15.85;3.20;;;6.70;99.90;;;;;;4989290;28;20041;-74
2023/12/20 02:31:08;;;;;;;6.93;2.00;;;6.70;99.90;;;;;;4989792;28;20030;-74
2023/12/20 02:33:33;;;;;;;13.13;1.20;;;6.60;99.90;;;;;;5000880;28;20040;-75
2023/12/20 02:35:59;;;;;;;10.15;1.38;;;6.60;99.90;;;;;;4986663;28;20034;-75
2023/12/20 02:38:24;;;;;;;19.02;2.22;;;6.60;99.90;;;;;;5001402;28;20149;-75
2023/12/20 02:40:50;;;;;;;17.52;2.30;;;6.60;99.90;;;;;;4987543;28;20722;-74
2023/12/20 02:43:15;;;;;;;14.10;2.20;;;6.60;99.90;;;;;;4986875;28;20590;-74
2023/12/20 02:45:41;;;;;;;10.73;1.83;;;6.60;99.90;;;;;;4986399;28;20042;-75
2023/12/20 02:48:07;;;;;;;9.95;1.52;;;6.70;99.90;;;;;;5001160;28;20042;-73
2023/12/20 02:50:32;;;;;;;8.27;1.60;;;6.80;99.90;;;;;;4990274;28;20040;-76
2023/12/20 02:52:58;;;;;;;19.52;2.17;;;6.80;99.90;;;;;;4987610;28;20497;-74
2023/12/20 02:55:23;;;;;;;22.70;1.67;;;6.90;99.90;;;;;;4988571;28;20133;-74
2023/12/20 02:57:49;;;;;;;13.80;2.55;;;7.00;99.90;;;;;;4988190;28;20077;-74
2023/12/20 03:00:14;;;;;;;15.75;3.35;;;7.00;99.90;;;;;;4977865;28;20042;-73
2023/12/20 03:02:40;;;;;;;12.82;1.65;;;7.00;99.90;;;;;;4997065;28;20062;-74
2023/12/20 03:05:06;;;;;;;18.30;1.98;;;7.00;99.90;;;;;;4987335;28;20549;-76
2023/12/20 03:07:32;;;;;;;14.68;2.85;;;7.00;99.90;;;;;;4986348;28;20481;-76
2023/12/20 03:09:57;;;;;;;19.73;2.13;;;7.00;99.90;;;;;;4986210;28;20027;-76
2023/12/20 03:12:23;;;;;;;17.77;1.40;;;7.10;99.90;;;;;;4986809;28;20363;-75
2023/12/20 03:14:49;;;;;;;16.63;2.08;;;7.10;99.90;;;;;;4988996;28;20148;-75
2023/12/20 03:17:15;;;;;;;16.40;2.25;;;7.10;99.90;;;;;;4989839;28;21105;-76
2023/12/20 03:19:40;;;;;;;15.23;2.22;;;7.00;99.90;;;;;;4988072;28;20100;-76
2023/12/20 03:22:06;;;;;;;19.77;2.38;;;7.00;99.90;;;;;;4988387;28;20026;-73
2023/12/20 03:24:31;;;;;;;9.75;1.85;;;7.00;99.90;;;;;;4995989;28;20053;-77
2023/12/20 03:26:57;;;;;;;10.70;1.77;;;7.00;99.90;;;;;;4985958;28;20092;-75
2023/12/20 03:29:22;;;;;;;15.50;1.75;;;7.00;99.90;;;;;;4999595;28;20084;-75
2023/12/20 03:31:48;;;;;;;11.70;1.85;;;7.00;99.90;;;;;;4986148;28;20932;-76
2023/12/20 03:34:13;;;;;;;12.18;1.58;;;7.00;99.90;;;;;;4987567;28;20124;-73
2023/12/20 03:36:40;;;;;;;21.85;2.78;;;7.10;99.90;;;;;;4986431;28;20039;-76
2023/12/20 03:39:06;;;;;;;11.30;1.65;;;7.00;99.90;;;;;;4987050;28;20034;-75
2023/12/20 03:41:31;;;;;;;8.02;1.30;;;7.00;99.90;;;;;;4986283;28;20386;-74
2023/12/20 03:43:57;;;;;;;19.38;2.10;;;7.10;99.90;;;;;;4993513;28;20058;-76
2023/12/20 03:46:22;;;;;;;17.63;2.13;;;7.00;99.90;;;;;;4984660;28;20538;-76
2023/12/20 03:48:48;;;;;;;15.95;1.58;;;7.00;99.90;;;;;;4986296;28;20509;-74
2023/12/20 03:51:13;;;;;;;15.93;2.20;;;7.00;99.90;;;;;;4997228;28;20046;-74
2023/12/20 03:53:40;;;;;;;10.00;1.92;;;7.00;99.90;;;;;;4987518;28;20034;-76
2023/12/20 03:56:06;;;;;;;21.35;4.30;;;7.00;99.90;;;;;;4987275;28;20034;-76
2023/12/20 03:58:31;;;;;;;10.93;2.20;;;7.00;99.90;;;;;;4985187;28;20057;-77
2023/12/20 04:00:57;;;;;;;14.38;1.92;;;7.00;99.90;;;;;;4994782;28;20383;-74
2023/12/20 04:03:22;;;;;;;9.93;1.90;;;7.00;99.90;;;;;;4990154;28;20045;-74
2023/12/20 04:05:48;;;;;;;13.23;1.30;;;7.00;99.90;;;;;;4988287;28;20026;-74
2023/12/20 04:08:14;;;;;;;10.52;1.70;;;7.00;99.90;;;;;;4986128;28;20045;-74
2023/12/20 04:10:39;;;;;;;11.85;1.80;;;7.00;99.90;;;;;;4986476;28;20034;-76
2023/12/20 04:13:05;;;;;;;13.63;2.67;;;7.10;99.90;;;;;;4995003;28;20038;-75
2023/12/20 04:15:30;;;;;;;11.25;1.38;;;7.10;99.90;;;;;;4993420;28;20045;-74
2023/12/20 04:17:56;;;;;;;15.05;1.92;;;7.20;99.90;;;;;;4987508;28;20049;-76
2023/12/20 04:20:21;;;;;;;14.55;2.00;;;7.20;99.90;;;;;;4985820;28;20100;-75
2023/12/20 04:22:47;;;;;;;10.20;1.40;;;7.20;99.90;;;;;;4988187;28;20176;-74
2023/12/20 04:25:12;;;;;;;16.80;1.98;;;7.20;99.90;;;;;;4985741;28;20349;-73
2023/12/20 04:27:38;;;;;;;16.40;1.35;;;7.20;99.90;;;;;;4998159;28;20042;-75
2023/12/20 04:30:04;;;;;;;16.80;2.40;;;7.20;99.90;;;;;;4984328;28;20078;-74
2023/12/20 04:32:30;;;;;;;11.25;1.33;;;7.30;99.90;;;;;;4986121;28;20047;-76
2023/12/20 04:34:55;;;;;;;14.80;1.50;;;7.20;99.90;;;;;;4998508;28;20678;-74
2023/12/20 04:37:21;;;;;;;14.23;1.25;;;7.30;99.90;;;;;;4983877;28;20465;-76
2023/12/20 04:39:46;;;;;;;20.58;2.00;;;7.30;99.90;;;;;;4987118;28;20030;-74
2023/12/20 04:42:12;;;;;;;17.70;2.70;;;7.30;99.90;;;;;;4983718;28;20153;-75
2023/12/20 04:44:38;;;;;;;13.57;1.50;;;7.30;99.90;;;;;;4986414;28;20046;-73
2023/12/20 04:47:03;;;;;;;11.20;2.47;;;7.30;99.90;;;;;;4993721;28;20398;-75
2023/12/20 04:49:29;;;;;;;10.60;2.08;;;7.30;99.90;;;;;;4994180;28;20118;-75
2023/12/20 04:52:28;;;;;;;8.43;1.50;;;7.30;99.90;;;;;;4987776;28;20035;-75
2023/12/20 04:54:54;;;;;;;17.17;2.88;;;7.20;99.90;;;;;;4965051;28;20793;-74
2023/12/20 04:57:19;;;;;;;12.63;2.17;;;7.20;99.90;;;;;;4984672;28;20038;-74
2023/12/20 04:59:45;;;;;;;15.30;2.22;;;7.20;99.90;;;;;;4980213;28;20037;-75
2023/12/20 05:02:11;;;;;;;8.40;1.35;;;7.20;99.90;;;;;;4987657;28;20030;-75
2023/12/20 05:04:37;;;;;;;12.05;2.40;;;7.20;99.90;;;;;;4995516;28;20058;-75
2023/12/20 05:07:04;;;;;;;15.00;2.30;;;7.20;99.90;;;;;;4982204;28;20026;-75
2023/12/20 05:09:30;;;;;;;15.25;1.73;;;7.30;99.90;;;;;;4982761;28;20125;-76
2023/12/20 05:11:55;;;;;;;10.65;1.75;;;7.30;99.90;;;;;;4986911;28;20457;-78
2023/12/20 05:14:21;;;;;;;25.70;2.25;;;7.30;99.90;;;;;;4985078;28;20466;-76
2023/12/20 05:16:46;;;;;;;16.13;3.13;;;7.30;99.90;;;;;;4984015;28;20418;-77
2023/12/20 05:19:12;;;;;;;17.23;2.40;;;7.30;99.90;;;;;;4997692;28;20054;-74
2023/12/20 05:21:38;;;;;;;15.48;2.72;;;7.30;99.90;;;;;;4985431;28;20134;-75
2023/12/20 05:24:04;;;;;;;13.52;1.58;;;7.30;99.90;;;;;;4985683;28;20049;-74
2023/12/20 05:26:30;;;;;;;10.82;3.20;;;7.30;99.90;;;;;;4987154;28;20034;-74
2023/12/20 05:28:55;;;;;;;23.90;1.67;;;7.30;99.90;;;;;;4987057;28;20132;-75
2023/12/20 05:31:21;;;;;;;20.73;2.05;;;7.30;99.90;;;;;;4987323;28;21133;-74
2023/12/20 05:33:47;;;;;;;18.02;2.30;;;7.30;99.90;;;;;;4983868;28;20042;-77
2023/12/20 05:36:14;;;;;;;12.23;1.80;;;7.30;99.90;;;;;;4984843;28;20038;-76
2023/12/20 05:38:40;;;;;;;15.35;2.00;;;7.30;99.90;;;;;;5000215;28;20034;-74
2023/12/20 05:41:06;;;;;;;13.32;2.17;;;7.30;99.90;;;;;;4990939;28;20045;-75
2023/12/20 05:43:31;;;;;;;15.55;2.20;;;7.40;99.90;;;;;;4983769;28;20545;-75
2023/12/20 05:45:57;;;;;;;14.82;2.00;;;7.40;99.90;;;;;;4987423;28;20444;-75
2023/12/20 05:48:23;;;;;;;10.07;1.67;;;7.40;99.90;;;;;;4987380;28;20056;-73
2023/12/20 05:50:49;;;;;;;19.85;3.28;;;7.50;99.90;;;;;;4985014;28;20490;-75
2023/12/20 05:53:14;;;;;;;16.77;2.17;;;7.50;99.90;;;;;;4983987;28;20382;-74
2023/12/20 05:55:40;;;;;;;11.23;1.95;;;7.50;99.90;;;;;;4997013;28;21715;-75
2023/12/20 05:58:05;;;;;;;15.07;2.30;;;7.50;99.90;;;;;;4997240;28;20038;-75
2023/12/20 06:00:31;;;;;;;12.10;1.85;;;7.50;99.90;;;;;;4985500;28;20053;-77
2023/12/20 06:02:56;;;;;;;19.10;2.30;;;7.50;99.90;;;;;;4984761;28;20057;-76
2023/12/20 06:05:22;;;;;;;11.75;2.10;;;7.50;99.90;;;;;;4987335;28;20129;-74
2023/12/20 06:07:49;;;;;;;14.60;1.90;;;7.50;99.90;;;;;;4986030;28;20041;-74
2023/12/20 06:10:15;;;;;;;15.68;2.15;;;7.50;99.90;;;;;;4989196;28;20030;-75
2023/12/20 06:12:40;;;;;;;10.95;3.65;;;7.60;99.90;;;;;;4983851;28;20085;-74
2023/12/20 06:15:06;;;;;;;13.70;3.75;;;7.60;99.90;;;;;;4986040;28;20379;-74
2023/12/20 06:17:32;;;;;;;7.28;0.93;;;7.60;99.90;;;;;;4983281;28;20038;-76
2023/12/20 06:19:58;;;;;;;11.02;2.08;;;7.60;99.90;;;;;;4987618;28;20623;-76
2023/12/20 06:22:23;;;;;;;14.82;1.38;;;7.60;99.90;;;;;;4984936;28;20089;-75
2023/12/20 06:24:49;;;;;;;10.65;2.47;;;7.60;99.90;;;;;;4996770;28;20087;-74
2023/12/20 06:27:14;;;;;;;7.35;1.52;;;7.60;99.90;;;;;;4987475;28;20042;-75
2023/12/20 06:29:41;;;;;;;11.32;1.70;;;7.70;99.90;;;;;;4983592;28;20518;-75
2023/12/20 06:32:06;;;;;;;9.95;1.50;;;7.70;99.90;;;;;;4981827;28;20027;-75
2023/12/20 06:34:32;;;;;;;11.57;1.90;;;7.60;99.90;;;;;;4985042;28;20510;-75
2023/12/20 06:36:57;;;;;;;18.05;2.55;;;7.60;99.90;;;;;;4985490;28;20045;-75
2023/12/20 06:39:23;;;;;;;9.88;1.20;;;7.60;99.90;;;;;;4986303;28;20486;-75
2023/12/20 06:41:49;;;;;;;14.75;2.75;;;7.60;99.90;;;;;;4982975;28;20046;-75
2023/12/20 06:44:14;;;;;;;13.50;2.10;;;7.70;99.90;;;;;;4986676;28;20093;-74
2023/12/20 06:46:40;;;;;;;8.07;2.50;;;7.60;99.90;;;;;;4986760;28;20042;-76
2023/12/20 06:49:06;;;;;;;12.82;1.77;;;7.70;99.90;;;;;;4996159;28;20037;-75
2023/12/20 06:51:31;;;;;;;11.15;2.33;;;7.60;99.90;;;;;;4981872;28;20030;-75
2023/12/20 06:53:57;;;;;;;18.75;2.75;;;7.70;99.90;;;;;;4985225;28;20508;-78
2023/12/20 06:56:22;;;;;;;14.30;2.97;;;7.70;99.90;;;;;;4993316;28;20038;-76
2023/12/20 06:58:48;;;;;;;9.73;2.13;;;7.70;99.90;;;;;;4976238;28;20049;-77
2023/12/20 07:01:14;;;;;;;21.08;2.75;;;7.70;99.90;;;;;;4978680;28;20818;-75
2023/12/20 07:03:40;;;;;;;17.60;3.50;;;7.70;99.90;;;;;;4983327;28;20042;-75
2023/12/20 07:06:06;;;;;;;17.52;2.53;;;7.70;99.90;;;;;;5002427;28;20089;-76
2023/12/20 07:08:32;;;;;;;16.17;1.73;;;7.80;99.90;;;;;;4993958;28;20046;-76
2023/12/20 07:10:57;;;;;;;12.05;2.53;;;7.80;99.90;;;;;;4997829;28;20034;-75
2023/12/20 07:13:23;;;;;;;10.85;2.25;;;7.80;99.90;;;;;;4997481;28;20053;-75
2023/12/20 07:15:49;;;;;;;11.30;2.63;;;7.80;99.90;;;;;;4983295;28;20490;-76
2023/12/20 07:18:14;;;;;;;17.20;2.65;;;7.80;99.90;;;;;;4990196;28;20402;-75
2023/12/20 07:20:40;;;;;;;16.23;2.05;;;7.80;99.90;;;;;;4982663;28;20042;-75
2023/12/20 07:23:05;;;;;;;10.68;2.33;;;7.80;99.90;;;;;;4983252;28;20069;-75
2023/12/20 07:25:34;;;;;;;14.82;2.33;;;7.80;99.90;;;;;;4987071;28;20030;-75
2023/12/20 07:27:59;;;;;;;12.40;2.03;;;7.80;99.90;;;;;;4986715;28;20030;-77
2023/12/20 07:30:25;;;;;;;7.57;1.30;;;7.80;99.90;;;;;;4998827;28;20033;-75
2023/12/20 07:32:52;;;;;;;12.30;1.50;;;7.80;99.90;;;;;;4995411;28;20034;-76
2023/12/20 07:35:17;;;;;;;20.55;2.28;;;7.80;99.90;;;;;;4985410;28;20536;-75
2023/12/20 07:37:43;;;;;;;14.68;2.05;;;7.80;99.90;;;;;;4997803;28;20042;-74
2023/12/20 07:40:10;;;;;;;14.38;1.83;;;7.90;99.90;;;;;;4998305;28;20053;-75
2023/12/20 07:42:35;;;;;;;9.32;2.08;;;7.90;99.90;;;;;;4980788;28;20461;-76
2023/12/20 07:45:01;;;;;;;12.57;1.98;;;7.90;99.90;;;;;;4984924;28;20034;-74
2023/12/20 07:47:27;;;;;;;17.05;2.95;;;7.90;99.90;;;;;;4984338;28;20444;-74
2023/12/20 07:49:52;;;;;;;11.05;1.67;;;8.00;99.90;;;;;;4994612;28;20037;-75
2023/12/20 07:52:19;;;;;;;18.60;3.03;;;8.00;99.90;;;;;;4994089;28;20829;-74
2023/12/20 07:54:45;;;;;;;19.42;2.85;;;8.00;99.90;;;;;;4990806;28;20129;-75
2023/12/20 07:57:11;;;;;;;12.27;1.50;;;8.00;99.90;;;;;;4984742;28;20042;-75
2023/12/20 07:59:37;;;;;;;15.93;2.30;;;8.00;99.90;;;;;;4986169;28;20466;-75
2023/12/20 08:02:02;;;;;;;12.77;2.63;;;8.00;99.90;;;;;;4985447;28;20084;-74
2023/12/20 08:04:28;;;;;;;20.60;3.47;;;8.00;99.90;;;;;;4987041;28;20042;-75
2023/12/20 08:06:53;;;;;;;11.55;2.00;;;8.00;99.90;;;;;;4985534;28;20434;-74
2023/12/20 08:09:19;;;;;;;14.40;2.30;;;8.00;99.90;;;;;;4984578;28;20026;-74
2023/12/20 08:11:48;;;;;;;14.35;2.40;;;8.00;99.90;;;;;;4980594;28;20049;-74
2023/12/20 08:14:15;;;;;;;16.00;2.33;;;8.00;99.90;;;;;;4987227;28;20092;-71
2023/12/20 08:16:40;;;;;;;19.67;1.92;;;8.00;99.90;;;;;;4987232;28;20115;-73
2023/12/20 08:19:06;;;;;;;18.17;2.10;;;8.00;99.90;;;;;;4984644;28;20499;-75
2023/12/20 08:21:32;;;;;;;14.65;1.90;;;8.00;99.90;;;;;;4984060;28;20042;-76
2023/12/20 08:23:57;;;;;;;12.05;1.63;;;8.00;99.90;;;;;;4982872;28;20409;-77
2023/12/20 08:26:24;;;;;;;24.20;3.83;;;8.00;99.90;;;;;;4986546;28;20133;-73
2023/12/20 08:28:50;;;;;;;7.38;1.27;;;8.10;99.90;;;;;;4984715;28;20528;-75
2023/12/20 08:31:17;;;;;;;18.73;1.90;;;8.10;99.90;;;;;;4981154;28;20046;-76
2023/12/20 08:33:47;;;;;;;26.33;2.10;;;8.10;99.90;;;;;;4988314;28;20069;-74
2023/12/20 08:36:12;;;;;;;20.73;3.15;;;8.10;99.90;;;;;;4987960;28;20041;-74
2023/12/20 08:38:38;;;;;;;15.68;1.73;;;8.10;99.90;;;;;;4998382;28;20046;-74
2023/12/20 08:41:07;;;;;;;10.18;1.00;;;8.10;99.90;;;;;;4988343;28;20038;-75
2023/12/20 08:43:34;;;;;;;12.68;2.45;;;8.10;99.90;;;;;;4985058;28;20383;-74
2023/12/20 08:45:59;;;;;;;13.68;1.92;;;8.20;99.90;;;;;;4985216;28;20449;-74
2023/12/20 08:48:25;;;;;;;21.90;2.45;;;8.20;99.90;;;;;;4985805;28;20030;-75
2023/12/20 08:50:52;;;;;;;13.30;1.45;;;8.20;99.90;;;;;;4987154;28;20034;-74
2023/12/20 08:53:18;;;;;;;6.13;1.45;;;8.30;99.90;;;;;;4969463;28;20034;-76
2023/12/20 08:55:44;;;;;;;13.52;1.55;;;8.30;99.90;;;;;;4999866;28;20100;-74
2023/12/20 08:58:10;;;;;;;9.70;1.52;;;8.30;99.90;;;;;;4983932;28;20487;-76
2023/12/20 09:00:35;;;;;;;12.10;2.05;;;8.30;99.90;;;;;;4968984;28;20030;-74
2023/12/20 09:03:02;;;;;;;14.55;2.15;;;8.40;99.90;;;;;;4969446;28;20034;-74
2023/12/20 09:05:28;;;;;;;17.40;2.58;;;8.40;99.90;;;;;;4972309;28;20027;-73
2023/12/20 09:07:54;;;;;;;11.50;2.15;;;8.40;99.90;;;;;;4983794;28;20048;-76
2023/12/20 09:10:22;;;;;;;17.05;1.85;;;8.40;99.90;;;;;;4985147;28;20080;-74
2023/12/20 09:12:51;;;;;;;17.20;3.25;;;8.40;99.90;;;;;;4986242;28;20042;-74
2023/12/20 09:15:17;;;;;;;17.48;2.60;;;8.50;99.90;;;;;;4987656;28;20415;-74
2023/12/20 09:17:43;;;;;;;13.98;2.38;;;8.50;99.90;;;;;;4987186;28;20035;-74
2023/12/20 09:20:09;;;;;;;13.15;2.42;;;8.50;99.90;;;;;;4985158;28;20030;-76
2023/12/20 09:22:35;;;;;;;9.35;1.98;;;8.50;99.90;;;;;;4986702;28;20030;-74
2023/12/20 09:25:01;;;;;;;7.40;1.25;;;8.60;99.90;;;;;;4985302;28;20414;-75
2023/12/20 09:27:27;;;;;;;15.55;2.13;;;8.60;99.90;;;;;;4985054;28;20031;-73
2023/12/20 09:29:53;;;;;;;8.25;1.50;;;8.70;99.90;;;;;;4984283;28;20038;-75
2023/12/20 09:32:20;;;;;;;16.27;1.85;;;8.60;99.90;;;;;;4988176;28;20033;-75
2023/12/20 09:34:47;;;;;;;11.25;1.85;;;8.70;99.90;;;;;;5005842;28;20096;-74
2023/12/20 09:37:13;;;;;;;12.50;2.35;;;8.70;99.90;;;;;;4984893;28;20072;-74
2023/12/20 09:39:39;;;;;;;13.60;1.80;;;8.70;99.90;;;;;;4986691;28;20471;-76
2023/12/20 09:42:05;;;;;;;20.75;1.67;;;8.80;99.90;;;;;;4995249;28;20037;-75
2023/12/20 09:44:32;;;;;;;12.23;2.42;;;8.80;99.90;;;;;;4970038;28;20034;-76
2023/12/20 09:46:59;;;;;;;6.55;1.52;;;8.80;99.90;;;;;;4969163;28;20038;-74
2023/12/20 09:49:27;;;;;;;10.85;1.40;;;8.80;99.90;;;;;;4986812;28;20030;-75
2023/12/20 09:51:54;;;;;;;9.45;1.50;;;8.80;99.90;;;;;;4964929;28;20439;-76
2023/12/20 09:54:21;;;;;;;7.97;1.55;;;8.80;99.90;;;;;;4949362;28;20031;-74
2023/12/20 09:56:47;;;;;;;20.30;1.70;;;8.80;99.90;;;;;;4949277;28;20521;-77
2023/12/20 09:59:13;;;;;;;9.68;2.20;;;8.90;99.90;;;;;;4974029;28;20037;-75
2023/12/20 10:01:40;;;;;;;12.55;1.42;;;8.90;99.90;;;;;;4987689;28;20083;-74
2023/12/20 10:04:08;;;;;;;13.23;2.40;;;8.90;99.90;;;;;;4984784;28;20038;-76
2023/12/20 10:06:44;;;;;;;18.13;1.98;;;8.90;99.90;;;;;;4984825;28;20449;-74
2023/12/20 10:09:11;;;;;;;9.30;1.98;;;9.00;99.90;;;;;;4949140;28;20034;-74
2023/12/20 10:11:38;;;;;;;16.52;2.25;;;9.00;99.90;;;;;;4989055;28;20037;-75
2023/12/20 10:14:04;;;;;;;18.75;2.63;;;9.00;99.90;;;;;;4986262;28;20861;-74
2023/12/20 10:16:30;;;;;;;14.57;2.28;;;9.00;99.90;;;;;;4985088;28;20027;-75
2023/12/20 10:18:57;;;;;;;23.95;3.13;;;9.10;99.90;;;;;;4984887;28;20451;-73
2023/12/20 10:21:24;;;;;;;12.02;1.80;;;9.10;99.90;;;;;;4984074;28;20033;-74
2023/12/20 10:23:50;;;;;;;10.25;1.33;;;9.10;99.90;;;;;;4984720;28;20031;-74
2023/12/20 10:26:25;;;;;;;16.88;1.48;;;9.10;99.90;;;;;;4984888;28;20509;-75
2023/12/20 10:29:00;;;;;;;14.32;2.05;;;9.20;99.90;;;;;;4987667;28;20038;-74
2023/12/20 10:31:27;;;;;;;20.30;1.67;;;9.20;99.90;;;;;;4987268;28;20040;-76
2023/12/20 10:33:53;;;;;;;7.80;1.35;;;9.20;99.90;;;;;;5004967;28;20042;-73
2023/12/20 10:36:18;;;;;;;9.10;1.40;;;9.20;99.90;;;;;;5005259;28;20033;-74
2023/12/20 10:38:45;;;;;;;11.82;1.42;;;9.20;99.90;;;;;;5005065;28;20496;-77
2023/12/20 10:41:12;;;;;;;12.60;2.38;;;9.30;99.90;;;;;;4990385;28;20026;-74
2023/12/20 10:43:38;;;;;;;7.57;1.02;;;9.30;99.90;;;;;;4987975;28;20403;-74
2023/12/20 10:46:06;;;;;;;14.50;1.52;;;9.30;99.90;;;;;;4988014;28;20038;-77
2023/12/20 10:48:32;;;;;;;8.98;1.75;;;9.30;99.90;;;;;;4997177;28;20030;-74
2023/12/20 10:50:58;;;;;;;12.15;1.13;;;9.40;99.90;;;;;;4987715;28;20030;-74
2023/12/20 10:53:25;;;;;;;10.20;1.63;;;9.40;99.90;;;;;;4989467;28;20031;-74
2023/12/20 10:55:55;;;;;;;11.85;1.58;;;9.40;99.90;;;;;;4972118;28;20498;-76
2023/12/20 10:58:21;;;;;;;15.65;1.83;;;9.30;99.90;;;;;;4971585;28;20116;-74
2023/12/20 11:00:50;;;;;;;10.43;1.20;;;9.30;99.90;;;;;;4971141;28;20463;-76
2023/12/20 11:03:17;;;;;;;13.00;1.67;;;9.30;99.90;;;;;;5007095;28;20053;-75
2023/12/20 11:05:50;;;;;;;7.63;1.23;;;9.30;99.90;;;;;;5008571;28;20030;-78
2023/12/20 11:08:42;;;;;;;15.43;2.22;;;9.40;99.90;;;;;;4988962;28;20399;-75
2023/12/20 11:11:39;;;;;;;14.43;2.33;;;9.30;99.90;;;;;;4960479;28;20374;-73
2023/12/20 11:14:12;;;;;;;17.65;2.17;;;9.40;99.90;;;;;;4988640;28;20038;-75
2023/12/20 11:16:38;;;;;;;15.13;1.13;;;9.40;99.90;;;;;;4988026;28;20117;-76
2023/12/20 11:19:06;;;;;;;12.15;1.30;;;9.60;99.90;;;;;;5003698;28;20117;-74
2023/12/20 11:21:32;;;;;;;13.60;1.48;;;9.60;99.90;;;;;;4995663;28;20118;-76
2023/12/20 11:23:59;;;;;;;10.85;1.52;;;9.70;99.90;;;;;;4987285;28;20067;-75
2023/12/20 11:26:29;;;;;;;11.90;2.00;;;9.70;99.90;;;;;;4987028;28;20058;-76
2023/12/20 11:29:14;;;;;;;7.13;1.93;;;9.80;99.90;;;;;;4989514;28;20046;-74
2023/12/20 11:31:41;;;;;;;9.18;1.17;;;9.80;99.90;;;;;;4983472;28;20046;-74
2023/12/20 11:34:17;;;;;;;8.77;1.58;;;9.80;99.90;;;;;;4988685;28;20036;-74
2023/12/20 11:36:43;;;;;;;13.40;1.05;;;9.90;99.90;;;;;;4987938;28;20034;-75
2023/12/20 11:39:10;;;;;;;10.43;1.20;;;9.90;99.90;;;;;;4992235;28;20054;-75
2023/12/20 11:41:36;;;;;;;12.85;1.70;;;9.90;99.90;;;;;;4986106;28;20097;-76
2023/12/20 11:44:04;;;;;;;10.70;1.70;;;9.90;99.90;;;;;;4995753;28;20030;-75
2023/12/20 11:46:31;;;;;;;9.43;1.77;;;9.90;99.90;;;;;;5008125;28;20092;-76
2023/12/20 11:48:57;;;;;;;11.02;1.23;;;9.90;99.90;;;;;;4982151;28;20692;-76
2023/12/20 11:51:22;;;;;;;8.45;1.30;;;10.00;99.90;;;;;;4983864;28;20037;-76
2023/12/20 11:53:52;;;;;;;4.05;0.98;;;10.00;99.90;;;;;;4989227;28;20825;-76
2023/12/20 11:56:17;;;;;;;6.27;1.20;;;10.20;99.90;;;;;;4989300;28;20038;-75
2023/12/20 11:58:43;;;;;;;10.50;1.70;;;10.10;99.90;;;;;;4985432;28;20104;-75
2023/12/20 12:01:09;;;;;;;9.95;1.15;;;10.10;99.90;;;;;;4985779;28;20035;-75
2023/12/20 12:03:34;;;;;;;11.45;3.25;;;10.00;99.90;;;;;;4985981;28;20046;-75
2023/12/20 12:06:00;;;;;;;10.02;1.75;;;10.00;99.90;;;;;;4986211;28;20431;-74
2023/12/20 12:08:26;;;;;;;10.82;1.42;;;9.90;99.90;;;;;;4993347;28;20154;-74
2023/12/20 12:10:52;;;;;;;8.45;0.95;;;10.00;99.90;;;;;;4988837;28;20124;-76
2023/12/20 12:13:17;;;;;;;14.48;2.15;;;10.00;99.90;;;;;;4985747;28;20050;-74
2023/12/20 12:15:44;;;;;;;12.93;1.50;;;9.90;99.90;;;;;;4985500;28;20038;-76
2023/12/20 12:18:10;;;;;;;14.73;1.75;;;9.90;99.90;;;;;;4987325;28;20433;-77
2023/12/20 12:20:36;;;;;;;10.68;0.90;;;9.90;99.90;;;;;;4997612;28;20068;-76
2023/12/20 12:23:04;;;;;;;9.82;1.75;;;9.90;99.90;;;;;;4988504;28;20057;-76
2023/12/20 12:25:31;;;;;;;5.18;1.45;;;10.00;99.90;;;;;;4989764;28;20045;-75
2023/12/20 12:27:58;;;;;;;15.85;1.92;;;9.90;99.90;;;;;;4984528;28;20061;-75
2023/12/20 12:30:24;;;;;;;10.00;1.00;;;10.00;99.90;;;;;;4985479;28;20030;-76
2023/12/20 12:32:52;;;;;;;17.88;2.35;;;10.00;99.90;;;;;;4988905;28;20129;-76
2023/12/20 12:35:18;;;;;;;4.78;1.30;;;10.00;99.90;;;;;;4988807;28;20034;-72
2023/12/20 12:37:44;;;;;;;9.32;1.58;;;10.00;99.90;;;;;;4986756;28;20037;-77
2023/12/20 12:40:11;;;;;;;12.65;1.77;;;10.00;99.90;;;;;;4986568;28;20031;-74
2023/12/20 12:42:38;;;;;;;11.77;1.00;;;10.00;99.90;;;;;;4984693;28;20514;-73